createdAt,value
2023-03-16T00:04:55.000Z,43.20
2023-03-16T00:10:00.172Z,33.72
2023-03-16T00:15:06.067Z,33.28
2023-03-16T00:20:12.506Z,29.58
2023-03-16T00:25:18.509Z,31.67
2023-03-16T00:30:24.459Z,27.27
2023-03-16T00:35:30.150Z,28.83
2023-03-16T00:40:37.245Z,30.38
2023-03-16T00:45:44.774Z,30.23
2023-03-16T00:50:54.231Z,19.88
2023-03-16T00:56:12.237Z,22.50
2023-03-16T01:01:19.072Z,24.73
2023-03-16T01:06:24.603Z,21.35
2023-03-16T01:11:30.506Z,23.83
2023-03-16T01:16:34.591Z,22.77
2023-03-16T01:21:39.286Z,25.13
2023-03-16T01:26:45.167Z,18.98
2023-03-16T01:31:50.141Z,18.80
2023-03-16T01:36:54.127Z,21.67
2023-03-16T01:41:59.249Z,17.80
2023-03-16T01:47:02.764Z,16.98
2023-03-16T01:52:09.725Z,16.90
2023-03-16T01:57:17.781Z,15.68
2023-03-16T02:02:23.800Z,13.23
2023-03-16T02:07:29.703Z,16.13
2023-03-16T02:12:35.157Z,16.83
2023-03-16T02:17:39.090Z,14.27
2023-03-16T02:22:46.359Z,14.15
2023-03-16T02:27:59.510Z,15.43
2023-03-16T02:33:05.290Z,12.27
2023-03-16T02:38:09.100Z,15.85
2023-03-16T02:43:16.820Z,10.02
2023-03-16T02:48:25.310Z,14.00
2023-03-16T02:53:28.759Z,14.10
2023-03-16T02:58:32.882Z,14.45
2023-03-16T03:03:37.988Z,13.65
2023-03-16T03:08:42.676Z,15.13
2023-03-16T03:13:46.517Z,16.75
2023-03-16T03:18:52.742Z,11.90
2023-03-16T03:23:56.369Z,13.85
2023-03-16T03:28:59.994Z,13.50
2023-03-16T03:34:06.749Z,16.40
2023-03-16T03:39:10.310Z,15.68
2023-03-16T03:44:14.007Z,12.07
2023-03-16T03:49:19.032Z,15.50
2023-03-16T03:54:22.794Z,10.98
2023-03-16T03:59:26.540Z,14.00
2023-03-16T04:04:33.849Z,11.25
2023-03-16T04:09:37.569Z,13.00
2023-03-16T04:14:40.986Z,9.82
2023-03-16T04:19:52.029Z,11.70
2023-03-16T04:24:55.456Z,9.13
2023-03-16T04:29:59.756Z,9.70
2023-03-16T04:35:05.375Z,11.73
2023-03-16T04:40:16.639Z,9.25
2023-03-16T04:45:20.427Z,13.20
2023-03-16T04:50:25.647Z,12.23
2023-03-16T04:55:29.633Z,15.45
2023-03-16T05:00:33.599Z,15.75
2023-03-16T05:05:38.888Z,17.67
2023-03-16T05:10:42.589Z,14.70
2023-03-16T05:15:46.102Z,15.95
2023-03-16T05:20:53.537Z,14.77
2023-03-16T05:25:59.786Z,10.82
2023-03-16T05:31:03.808Z,12.68
2023-03-16T05:36:09.520Z,14.63
2023-03-16T05:41:14.952Z,17.27
2023-03-16T05:46:20.863Z,13.18
2023-03-16T05:51:27.034Z,18.20
2023-03-16T05:56:30.934Z,16.75
2023-03-16T06:01:35.060Z,18.17
2023-03-16T06:06:40.343Z,16.75
2023-03-16T06:11:44.522Z,12.65
2023-03-16T06:16:49.923Z,14.80
2023-03-16T06:21:55.231Z,9.18
2023-03-16T06:26:58.675Z,11.93
2023-03-16T06:32:02.163Z,9.18
2023-03-16T06:37:07.250Z,6.88
2023-03-16T06:42:11.030Z,14.38
2023-03-16T06:47:14.846Z,9.02
2023-03-16T06:52:19.703Z,11.35
2023-03-16T06:57:24.028Z,9.57
2023-03-16T07:02:27.540Z,10.50
2023-03-16T07:07:34.691Z,9.57
2023-03-16T07:12:40.676Z,9.43
2023-03-16T07:17:44.464Z,9.20
2023-03-16T07:22:49.377Z,7.30
2023-03-16T07:27:52.791Z,6.05
2023-03-16T07:32:56.289Z,9.00
2023-03-16T07:38:01.549Z,12.52
2023-03-16T07:43:05.282Z,8.02
2023-03-16T07:48:09.282Z,12.00
2023-03-16T07:53:14.527Z,7.45
2023-03-16T07:58:18.375Z,11.85
2023-03-16T08:03:22.700Z,13.43
2023-03-16T08:08:28.000Z,9.80
2023-03-16T08:13:31.939Z,11.75
2023-03-16T08:18:35.377Z,10.30
2023-03-16T08:23:40.432Z,13.60
2023-03-16T08:28:47.662Z,9.50
2023-03-16T08:33:51.795Z,8.75
2023-03-16T08:39:06.641Z,11.55
2023-03-16T08:44:10.933Z,9.45
2023-03-16T08:49:14.828Z,10.82
2023-03-16T08:54:19.606Z,14.18
2023-03-16T08:59:29.719Z,10.45
2023-03-16T09:04:34.069Z,5.55
2023-03-16T09:09:39.774Z,7.30
2023-03-16T09:14:43.260Z,6.85
2023-03-16T09:19:51.475Z,7.78
2023-03-16T09:24:57.959Z,6.93
2023-03-16T09:30:02.633Z,9.15
2023-03-16T09:35:07.150Z,8.32
2023-03-16T09:40:23.135Z,13.60
2023-03-16T09:45:36.431Z,7.45
2023-03-16T09:50:48.857Z,4.97
2023-03-16T09:55:58.686Z,4.43
2023-03-16T10:01:11.264Z,5.50
2023-03-16T10:06:14.977Z,6.82
2023-03-16T10:11:26.915Z,10.55
2023-03-16T10:16:37.478Z,11.40
2023-03-16T10:21:43.356Z,6.85
2023-03-16T10:27:00.196Z,5.50
2023-03-16T10:32:14.225Z,6.00
2023-03-16T10:37:17.767Z,6.85
2023-03-16T10:42:22.682Z,7.00
2023-03-16T10:47:30.548Z,6.55
2023-03-16T10:52:36.804Z,9.63
2023-03-16T10:57:45.552Z,6.55
2023-03-16T11:02:50.510Z,4.15
2023-03-16T11:08:00.299Z,4.40
2023-03-16T11:13:12.643Z,4.13
2023-03-16T11:18:26.796Z,4.32
2023-03-16T11:23:34.341Z,5.38
2023-03-16T11:28:44.774Z,10.15
2023-03-16T11:33:49.107Z,3.80
2023-03-16T11:39:05.739Z,6.53
2023-03-16T11:44:17.222Z,8.35
2023-03-16T11:49:44.624Z,5.60
2023-03-16T11:55:02.730Z,5.72
2023-03-16T12:00:21.281Z,3.42
2023-03-16T12:05:44.344Z,6.05
2023-03-16T12:10:54.166Z,8.60
2023-03-16T12:16:01.825Z,5.15
2023-03-16T12:21:12.400Z,5.53
2023-03-16T12:26:17.705Z,4.55
2023-03-16T12:31:29.390Z,5.70
2023-03-16T12:36:59.135Z,5.22
2023-03-16T12:42:19.620Z,8.43
2023-03-16T12:47:33.707Z,8.75
2023-03-16T12:52:43.140Z,6.47
2023-03-16T12:57:49.553Z,3.33
2023-03-16T13:02:59.982Z,5.03
2023-03-16T13:08:10.859Z,4.82
2023-03-16T13:13:17.238Z,3.17
2023-03-16T13:18:25.343Z,6.30
2023-03-16T13:23:52.231Z,6.82
2023-03-16T13:28:56.913Z,5.32
2023-03-16T13:34:03.827Z,7.65
2023-03-16T13:39:17.514Z,7.38
2023-03-16T13:44:23.822Z,5.43
2023-03-16T13:49:28.788Z,4.25
2023-03-16T13:54:33.305Z,3.95
2023-03-16T13:59:39.073Z,5.13
2023-03-16T14:04:44.791Z,7.60
2023-03-16T14:09:50.239Z,5.78
2023-03-16T14:14:56.847Z,4.75
2023-03-16T14:20:04.221Z,6.05
2023-03-16T14:25:11.969Z,6.53
2023-03-16T14:30:19.513Z,8.70
2023-03-16T14:35:28.622Z,4.88
2023-03-16T14:40:33.453Z,4.25
2023-03-16T14:45:37.989Z,4.43
2023-03-16T14:50:45.972Z,5.25
2023-03-16T14:55:49.749Z,9.07
2023-03-16T15:00:54.997Z,5.05
2023-03-16T15:06:01.366Z,6.85
2023-03-16T15:11:07.672Z,5.10
2023-03-16T15:16:14.205Z,4.38
2023-03-16T15:21:24.840Z,2.40
2023-03-16T15:26:30.722Z,6.13
2023-03-16T15:31:37.534Z,8.52
2023-03-16T15:36:42.564Z,6.22
2023-03-16T15:41:48.044Z,6.60
2023-03-16T15:46:51.682Z,3.65
2023-03-16T15:51:56.478Z,6.38
2023-03-16T15:57:00.206Z,4.60
2023-03-16T16:02:04.212Z,3.33
2023-03-16T16:07:12.132Z,9.13
2023-03-16T16:12:16.666Z,5.20
2023-03-16T16:17:32.761Z,4.43
2023-03-16T16:22:48.505Z,4.38
2023-03-16T16:27:52.827Z,3.78
2023-03-16T16:32:58.835Z,7.43
2023-03-16T16:38:04.263Z,4.47
2023-03-16T16:43:08.356Z,4.78
2023-03-16T16:48:28.067Z,8.60
2023-03-16T16:53:32.827Z,11.38
2023-03-16T16:58:36.576Z,14.77
2023-03-16T17:03:40.390Z,10.77
2023-03-16T17:08:47.572Z,9.63
2023-03-16T17:13:52.817Z,10.98
2023-03-16T17:18:57.245Z,6.82
2023-03-16T17:24:03.785Z,7.72
2023-03-16T17:29:15.113Z,5.18
2023-03-16T17:34:20.931Z,16.83
2023-03-16T17:39:27.449Z,34.78
2023-03-16T17:44:33.798Z,59.03
2023-03-16T17:49:37.272Z,55.30
2023-03-16T17:54:42.196Z,47.38
2023-03-16T17:59:46.973Z,46.60
2023-03-16T18:04:51.210Z,40.03
2023-03-16T18:09:55.968Z,50.20
2023-03-16T18:14:59.523Z,58.40
2023-03-16T18:20:03.073Z,67.45
2023-03-16T18:25:27.802Z,80.20
2023-03-16T18:30:32.825Z,56.80
2023-03-16T18:35:38.448Z,55.08
2023-03-16T18:40:43.328Z,48.38
2023-03-16T18:45:47.294Z,44.05
2023-03-16T18:50:53.347Z,55.40
2023-03-16T18:55:58.627Z,44.65
2023-03-16T19:01:03.285Z,62.80
2023-03-16T19:06:07.557Z,68.25
2023-03-16T19:11:13.237Z,103.70
2023-03-16T19:16:18.184Z,65.22
2023-03-16T19:21:23.963Z,52.80
2023-03-16T19:26:30.634Z,48.90
2023-03-16T19:31:34.394Z,81.60
2023-03-16T19:36:38.331Z,75.07
2023-03-16T19:41:43.618Z,48.20
2023-03-16T19:46:47.801Z,38.00
2023-03-16T19:51:53.074Z,39.33
2023-03-16T19:57:01.280Z,40.22
2023-03-16T20:02:20.648Z,41.00
2023-03-16T20:07:24.430Z,47.83
2023-03-16T20:12:29.729Z,47.55
2023-03-16T20:17:33.890Z,43.80
2023-03-16T20:22:37.405Z,46.67
2023-03-16T20:27:42.688Z,52.25
2023-03-16T20:32:47.072Z,54.60
2023-03-16T20:37:52.743Z,51.10
2023-03-16T20:42:57.661Z,52.08
2023-03-16T20:48:01.844Z,45.20
2023-03-16T20:53:05.278Z,46.33
2023-03-16T20:58:19.058Z,40.53
2023-03-16T21:03:24.580Z,50.95
2023-03-16T21:08:28.817Z,50.13
2023-03-16T21:13:34.820Z,58.75
2023-03-16T21:18:38.196Z,58.40
2023-03-16T21:23:41.669Z,57.58
2023-03-16T21:28:53.299Z,63.83
2023-03-16T21:33:57.178Z,73.10
2023-03-16T21:39:01.335Z,68.95
2023-03-16T21:44:06.311Z,72.07
2023-03-16T21:49:11.553Z,80.18
2023-03-16T21:54:15.881Z,75.55
2023-03-16T21:59:22.626Z,60.22
2023-03-16T22:04:26.936Z,70.75
2023-03-16T22:09:33.106Z,65.45
2023-03-16T22:14:38.119Z,64.53
2023-03-16T22:19:41.881Z,50.45
2023-03-16T22:24:46.110Z,55.75
2023-03-16T22:29:51.243Z,53.08
2023-03-16T22:34:57.141Z,53.25
2023-03-16T22:40:02.943Z,41.75
2023-03-16T22:45:18.922Z,39.65
2023-03-16T22:50:24.284Z,49.80
2023-03-16T22:55:31.632Z,40.15
2023-03-16T23:00:38.105Z,44.47
2023-03-16T23:05:41.855Z,41.20
2023-03-16T23:10:46.183Z,42.75
2023-03-16T23:15:53.486Z,44.65
2023-03-16T23:20:57.300Z,47.25
2023-03-16T23:26:01.389Z,49.05
2023-03-16T23:31:07.421Z,51.13
2023-03-16T23:36:16.087Z,48.50
2023-03-16T23:41:22.174Z,51.72
2023-03-16T23:46:29.058Z,46.20
2023-03-16T23:51:36.674Z,56.58
2023-03-16T23:56:40.310Z,57.53
